Clinton, IN (47842)

11:59 EDT le 25 avril 2015 (GMT -0400)
South Vermillion High School | | Change Station
CLOSE
Current Station
Stations météorologiques personnelles
Location: Clinton, IN
Altitude: 518 ft
Stations météo à proximité

Alt. 518 ft 39.69 °N, 87.41 °W | Updated 9 minutes ago

Pluie
Pluie
49.3 ° F
Paraît 49 ° F
N
0.0
Vent Variable Vent de ONO
Gusts 0.0 mph

Aujourd'hui
Haut(e) -- | Bas -- ° F
--% Risque de précip.
Hier
Haut(e) -- | Bas -- ° F
Precip. -- pouce
6:58 AM 8:37 PM
Lune montante, 47% visible
Pression 29.63 pouce
Visibilité 2.5 Miles terrestres
Nuages Nuageux 800 ft
Couvert 1300 ft
Refroidissement éolien 49 ° F
Point de rosée 48 ° F
Humidité 94%
Précipitations 0.25 pouce
Profondeur de la couche neigeuse Non disponible.
UV 2 sur 12
Pollen 10.00 sur 12
Qualité de l'air Non disponible.
Flu Activity Local Activity
METAR KPRG 251535Z AUTO 11010G15KT 2 1/2SM -TSRA BKN008 OVC013 10/10 A2963 RMK AO2 LTG DSNT S THRU NW P0004 T00980095

More Conditions Fewer Conditions

Pression 29.63 pouce
Visibilité 2.5 Miles terrestres
Nuages Nuageux 800 ft
Couvert 1300 ft
Refroidissement éolien 49 ° F
Point de rosée 48 ° F
Humidité 94%
Précipitations 0.25 pouce
Profondeur de la couche neigeuse Non disponible.
UV 2 sur 12
Pollen 10.00 sur 12
Qualité de l'air Non disponible.
Flu Activity Local Activity
METAR KPRG 251535Z AUTO 11010G15KT 2 1/2SM -TSRA BKN008 OVC013 10/10 A2963 RMK AO2 LTG DSNT S THRU NW P0004 T00980095

More Conditions Fewer Conditions

10-Day Weather Forecast

Almanac

Astronomie

Apr. 25, 2015 Lever Coucher
Temps réel
Crépuscule civil
Crépuscule nautique
Crépuscule astronomique
Lune
Durée de lumière visible
Longueur du jour
Tomorrow will be .
, % of the Moon is Illuminated

Extrêmes aujourd'hui

State Highs State Lows

Community

WunderPhotos

Upload Photos

1,816,719 Photos téléchargées !

WunderBlogs® & News

Nearby

Qualité de l'air

  Qualité de l'air Indice de la qualité de l'air Polluant
Not available.

Épaisseur de neige

Station Depth Altitude

Activité sismique

Ville Distance Mag. Time & Date
Minimum magnitude displayed is 2.5.

Températures des eaux côtières

Lieu Température

Stations

Stations météo à proximité

Emplacement de la station Température Refroidissement éolien Point de rosée Humidité Vent Precip. Alt. Mise à jour Type